Time;durP1;ratioP1;P1;durP2;ratioP2;P2;SDS_P1;SDS_P2;PMS_P1;PMS_P2;Temp;Humidity;BMP_temperature;BMP_pressure;BME280_temperature;BME280_humidity;BME280_pressure;Samples;Min_cycle;Max_cycle;Signal;HPM_P1;HPM_P2
2024/03/03 00:01:06;;;;;;;21.10;17.40;;;8.80;99.90;;;;;;5030992;28;20485;-64
2024/03/03 00:03:34;;;;;;;22.07;16.50;;;8.80;99.90;;;;;;5033732;28;21065;-64
2024/03/03 00:06:06;;;;;;;17.87;15.80;;;8.80;99.90;;;;;;5028871;28;20496;-64
2024/03/03 00:08:35;;;;;;;18.77;14.97;;;8.80;99.90;;;;;;5024883;28;20483;-64
2024/03/03 00:11:04;;;;;;;19.97;16.30;;;8.80;99.90;;;;;;5030846;28;20650;-64
2024/03/03 00:13:32;;;;;;;21.57;17.60;;;8.80;99.90;;;;;;5022785;28;20525;-64
2024/03/03 00:16:02;;;;;;;19.93;17.50;;;8.80;99.90;;;;;;5029713;28;20518;-64
2024/03/03 00:18:31;;;;;;;22.67;17.60;;;8.70;99.90;;;;;;5031712;28;21025;-64
2024/03/03 00:20:58;;;;;;;22.37;16.60;;;8.70;99.90;;;;;;5028712;28;20466;-64
2024/03/03 00:23:28;;;;;;;20.00;16.47;;;8.70;99.90;;;;;;5030337;28;20573;-64
2024/03/03 00:25:57;;;;;;;21.80;18.07;;;8.70;99.90;;;;;;5020477;28;20498;-64
2024/03/03 00:28:24;;;;;;;21.40;17.30;;;8.70;99.90;;;;;;5006185;28;23298;-64
2024/03/03 00:30:53;;;;;;;22.00;17.70;;;8.70;99.90;;;;;;5009207;28;20482;-64
2024/03/03 00:33:21;;;;;;;21.60;17.97;;;8.70;99.90;;;;;;5012069;28;20464;-64
2024/03/03 00:35:49;;;;;;;23.23;18.47;;;8.70;99.90;;;;;;5009317;28;20487;-64
2024/03/03 00:38:17;;;;;;;21.40;17.70;;;8.70;99.90;;;;;;5005219;28;20586;-64
2024/03/03 00:40:46;;;;;;;19.70;16.93;;;8.60;99.90;;;;;;4998875;28;20574;-64
2024/03/03 00:43:14;;;;;;;21.80;17.77;;;8.60;99.90;;;;;;5013252;28;20501;-64
2024/03/03 00:45:43;;;;;;;20.57;17.90;;;8.60;99.90;;;;;;5011184;28;20498;-64
2024/03/03 00:48:11;;;;;;;21.30;17.50;;;8.50;99.90;;;;;;5010983;28;20853;-63
2024/03/03 00:50:39;;;;;;;23.40;18.50;;;8.50;99.90;;;;;;5015161;28;20563;-63
2024/03/03 00:53:07;;;;;;;23.60;17.50;;;8.50;99.90;;;;;;5004978;28;20477;-64
2024/03/03 00:55:35;;;;;;;21.50;18.10;;;8.50;99.90;;;;;;5015081;28;20491;-64
2024/03/03 00:58:05;;;;;;;20.73;17.90;;;8.50;99.90;;;;;;5016962;28;20554;-63
2024/03/03 01:00:33;;;;;;;22.70;19.17;;;8.40;99.90;;;;;;5017963;28;20486;-64
2024/03/03 01:03:01;;;;;;;24.17;19.03;;;8.40;99.90;;;;;;5010486;28;20495;-64
2024/03/03 01:05:29;;;;;;;24.67;19.83;;;8.40;99.90;;;;;;5013362;28;20577;-65
2024/03/03 01:07:56;;;;;;;21.57;17.70;;;8.40;99.90;;;;;;5011681;28;20471;-64
2024/03/03 01:10:24;;;;;;;23.63;18.80;;;8.40;99.90;;;;;;5015093;28;20491;-64
2024/03/03 01:12:52;;;;;;;22.90;18.53;;;8.30;99.90;;;;;;5013912;28;20480;-64
2024/03/03 01:15:22;;;;;;;22.90;18.20;;;8.30;99.90;;;;;;5013973;28;20475;-64
2024/03/03 01:17:50;;;;;;;24.37;18.63;;;8.30;99.90;;;;;;5011671;28;20558;-64
2024/03/03 01:20:18;;;;;;;22.40;18.40;;;8.30;99.90;;;;;;5014795;28;20512;-64
2024/03/03 01:22:46;;;;;;;21.87;18.33;;;8.30;99.90;;;;;;5012273;28;20798;-64
2024/03/03 01:25:14;;;;;;;24.17;18.43;;;8.30;99.90;;;;;;5014847;28;20594;-64
2024/03/03 01:27:43;;;;;;;25.40;20.17;;;8.30;99.90;;;;;;5015164;28;20890;-64
2024/03/03 01:30:11;;;;;;;24.33;19.37;;;8.30;99.90;;;;;;5017849;28;20499;-64
2024/03/03 01:32:41;;;;;;;25.10;20.33;;;8.30;99.90;;;;;;5010855;28;20964;-64
2024/03/03 01:35:09;;;;;;;22.50;19.53;;;8.30;99.90;;;;;;5015472;28;20476;-64
2024/03/03 01:37:37;;;;;;;25.07;18.93;;;8.20;99.90;;;;;;5014828;28;20467;-64
2024/03/03 01:40:06;;;;;;;26.47;20.23;;;8.20;99.90;;;;;;5013095;28;20494;-64
2024/03/03 01:42:34;;;;;;;26.43;21.00;;;8.20;99.90;;;;;;5014504;28;20467;-64
2024/03/03 01:45:03;;;;;;;24.73;19.67;;;8.20;99.90;;;;;;5007924;28;20580;-64
2024/03/03 01:47:32;;;;;;;23.00;19.27;;;8.20;99.90;;;;;;5032548;28;20578;-64
2024/03/03 01:50:01;;;;;;;26.10;20.30;;;8.20;99.90;;;;;;5028650;28;20504;-64
2024/03/03 01:52:30;;;;;;;26.80;20.80;;;8.10;99.90;;;;;;5034402;28;20473;-64
2024/03/03 01:54:58;;;;;;;22.40;18.80;;;8.10;99.90;;;;;;5037411;28;20973;-64
2024/03/03 01:57:26;;;;;;;25.40;20.10;;;8.10;99.90;;;;;;5017296;28;20490;-64
2024/03/03 01:59:55;;;;;;;26.00;19.50;;;8.10;99.90;;;;;;5015916;28;20586;-64
2024/03/03 02:02:26;;;;;;;27.70;19.77;;;8.10;99.90;;;;;;5011699;28;20494;-64
2024/03/03 02:04:55;;;;;;;29.97;20.67;;;8.10;99.90;;;;;;5012713;28;20598;-64
2024/03/03 02:07:26;;;;;;;22.87;18.93;;;8.10;99.90;;;;;;5034628;28;20491;-64
2024/03/03 02:09:55;;;;;;;23.80;19.10;;;8.10;99.90;;;;;;5036535;28;20494;-64
2024/03/03 02:12:25;;;;;;;25.30;19.43;;;8.10;99.90;;;;;;5034673;28;20467;-64
2024/03/03 02:14:53;;;;;;;26.73;19.80;;;8.10;99.90;;;;;;5035971;28;20477;-64
2024/03/03 02:17:21;;;;;;;25.47;19.23;;;8.10;99.90;;;;;;5010489;28;21193;-65
2024/03/03 02:19:49;;;;;;;24.30;18.37;;;8.00;99.90;;;;;;5016336;28;20499;-64
2024/03/03 02:22:18;;;;;;;25.27;19.50;;;8.10;99.90;;;;;;5012297;28;20517;-64
2024/03/03 02:24:46;;;;;;;28.67;20.77;;;8.00;99.90;;;;;;5017182;28;21012;-64
2024/03/03 02:27:14;;;;;;;30.00;21.67;;;8.00;99.90;;;;;;5017621;28;20488;-64
2024/03/03 02:29:43;;;;;;;24.93;19.50;;;8.00;99.90;;;;;;5015382;28;20588;-64
2024/03/03 02:32:11;;;;;;;28.30;21.63;;;8.00;99.90;;;;;;5017713;28;20589;-63
2024/03/03 02:34:39;;;;;;;25.50;20.17;;;7.90;99.90;;;;;;5017766;28;21013;-64
2024/03/03 02:37:07;;;;;;;27.20;20.87;;;7.90;99.90;;;;;;5016652;28;20489;-64
2024/03/03 02:39:37;;;;;;;25.67;20.10;;;8.00;99.90;;;;;;5014310;28;20501;-64
2024/03/03 02:42:05;;;;;;;24.63;20.07;;;7.90;99.90;;;;;;5013103;28;20517;-64
2024/03/03 02:44:33;;;;;;;23.87;19.70;;;7.90;99.90;;;;;;5013886;28;20536;-64
2024/03/03 02:47:02;;;;;;;29.20;20.83;;;7.90;99.90;;;;;;5012240;28;20519;-64
2024/03/03 02:49:30;;;;;;;27.47;21.00;;;7.90;99.90;;;;;;5012819;28;20487;-64
2024/03/03 02:51:58;;;;;;;25.73;20.17;;;7.90;99.90;;;;;;4981685;28;20499;-63
2024/03/03 02:54:28;;;;;;;25.00;20.07;;;7.90;99.90;;;;;;4988155;28;20475;-64
2024/03/03 02:56:57;;;;;;;27.50;21.23;;;7.80;99.90;;;;;;4990438;28;20494;-65
2024/03/03 02:59:25;;;;;;;27.30;19.80;;;7.90;99.90;;;;;;4994633;28;20581;-66
2024/03/03 03:01:53;;;;;;;25.40;20.33;;;7.90;99.90;;;;;;5010225;28;20471;-66
2024/03/03 03:04:21;;;;;;;27.07;20.77;;;7.80;99.90;;;;;;5007334;28;20499;-65
2024/03/03 03:06:49;;;;;;;27.03;21.97;;;7.80;99.90;;;;;;5014585;28;20592;-65
2024/03/03 03:09:18;;;;;;;25.50;20.10;;;7.80;99.90;;;;;;5015092;28;20493;-66
2024/03/03 03:11:45;;;;;;;26.70;19.90;;;7.80;99.90;;;;;;5017547;28;20563;-65
2024/03/03 03:14:15;;;;;;;20.30;17.73;;;7.80;99.90;;;;;;5010330;28;20472;-66
2024/03/03 03:16:43;;;;;;;26.10;19.53;;;7.80;99.90;;;;;;5011756;28;20483;-64
2024/03/03 03:19:11;;;;;;;25.23;19.37;;;7.80;99.90;;;;;;5013934;28;20583;-64
2024/03/03 03:21:39;;;;;;;27.30;21.10;;;7.80;99.90;;;;;;5016110;28;20476;-64
2024/03/03 03:24:07;;;;;;;24.03;18.90;;;7.80;99.90;;;;;;5004379;28;20538;-65
2024/03/03 03:26:35;;;;;;;25.00;21.07;;;7.80;99.90;;;;;;4991833;28;20483;-65
2024/03/03 03:29:04;;;;;;;23.20;18.83;;;7.80;99.90;;;;;;4989893;28;21569;-65
2024/03/03 03:31:34;;;;;;;25.47;20.47;;;7.70;99.90;;;;;;4995551;28;20472;-65
2024/03/03 03:34:02;;;;;;;23.27;20.07;;;7.80;99.90;;;;;;4994419;28;20506;-65
2024/03/03 03:36:30;;;;;;;26.23;21.30;;;7.70;99.90;;;;;;4999186;28;20703;-64
2024/03/03 03:38:59;;;;;;;27.87;20.57;;;7.70;99.90;;;;;;5012311;28;20484;-64
2024/03/03 03:41:27;;;;;;;25.00;19.97;;;7.70;99.90;;;;;;5006444;28;20476;-64
2024/03/03 03:43:56;;;;;;;28.53;22.00;;;7.70;99.90;;;;;;5010437;28;20492;-64
2024/03/03 03:46:23;;;;;;;27.30;21.80;;;7.70;99.90;;;;;;5014555;28;20515;-64
2024/03/03 03:48:53;;;;;;;24.60;19.90;;;7.70;99.90;;;;;;5011670;28;20493;-64
2024/03/03 03:51:21;;;;;;;24.87;19.50;;;7.70;99.90;;;;;;5012655;28;20483;-64
2024/03/03 03:53:49;;;;;;;28.30;20.50;;;7.70;99.90;;;;;;5015253;28;20481;-64
2024/03/03 03:56:17;;;;;;;22.73;19.50;;;7.60;99.90;;;;;;5020004;28;20567;-64
2024/03/03 03:58:45;;;;;;;26.10;18.80;;;7.60;99.90;;;;;;5035068;28;20576;-64
2024/03/03 04:01:18;;;;;;;22.33;18.07;;;7.60;99.90;;;;;;5030422;28;20464;-64
2024/03/03 04:03:46;;;;;;;22.33;18.77;;;7.60;99.90;;;;;;5027683;28;20517;-65
2024/03/03 04:06:15;;;;;;;24.57;19.00;;;7.60;99.90;;;;;;5025997;28;20492;-64
2024/03/03 04:08:43;;;;;;;27.17;20.23;;;7.60;99.90;;;;;;5012387;28;20491;-64
2024/03/03 04:11:11;;;;;;;25.50;19.70;;;7.60;99.90;;;;;;5011231;28;20558;-65
2024/03/03 04:13:39;;;;;;;25.70;19.73;;;7.60;99.90;;;;;;5012688;28;20980;-64
2024/03/03 04:16:08;;;;;;;27.20;20.43;;;7.60;99.90;;;;;;5012539;28;20490;-64
2024/03/03 04:18:36;;;;;;;22.90;18.47;;;7.50;99.90;;;;;;5012625;28;20498;-65
2024/03/03 04:21:05;;;;;;;24.30;19.37;;;7.50;99.90;;;;;;5017280;28;20467;-64
2024/03/03 04:23:34;;;;;;;23.87;19.50;;;7.50;99.90;;;;;;5009504;28;21038;-64
2024/03/03 04:26:05;;;;;;;26.10;20.33;;;7.40;99.90;;;;;;5014366;28;20491;-64
2024/03/03 04:28:34;;;;;;;27.10;19.97;;;7.40;99.90;;;;;;5008936;28;20523;-65
2024/03/03 04:31:05;;;;;;;24.57;19.57;;;7.50;99.90;;;;;;5015974;28;20475;-64
2024/03/03 04:33:33;;;;;;;25.90;19.80;;;7.40;99.90;;;;;;5011720;28;21063;-64
2024/03/03 04:36:02;;;;;;;24.30;19.80;;;7.40;99.90;;;;;;5008099;28;21459;-64
2024/03/03 04:38:30;;;;;;;25.10;19.77;;;7.30;99.90;;;;;;5001211;28;20491;-65
2024/03/03 04:40:59;;;;;;;23.87;19.37;;;7.40;99.90;;;;;;5010264;28;20567;-64
2024/03/03 04:43:27;;;;;;;22.97;19.00;;;7.30;99.90;;;;;;5012360;28;20472;-64
2024/03/03 04:45:55;;;;;;;23.83;19.10;;;7.30;99.90;;;;;;5011194;28;20683;-64
2024/03/03 04:48:25;;;;;;;24.30;20.13;;;7.30;99.90;;;;;;5012963;28;20566;-64
2024/03/03 04:50:53;;;;;;;26.20;19.73;;;7.30;99.90;;;;;;5015616;28;20582;-65
2024/03/03 04:53:21;;;;;;;28.17;20.50;;;7.30;99.90;;;;;;5007183;28;21051;-64
2024/03/03 04:55:49;;;;;;;25.10;19.80;;;7.30;99.90;;;;;;5013760;28;21081;-64
2024/03/03 04:58:19;;;;;;;25.60;20.37;;;7.20;99.90;;;;;;5011073;28;20543;-64
2024/03/03 05:00:47;;;;;;;23.67;19.97;;;7.20;99.90;;;;;;5014811;28;20526;-64
2024/03/03 05:03:15;;;;;;;26.27;20.37;;;7.20;99.90;;;;;;5010967;28;21067;-65
2024/03/03 05:05:43;;;;;;;24.53;19.87;;;7.20;99.90;;;;;;5014275;28;20571;-64
2024/03/03 05:08:11;;;;;;;28.80;21.47;;;7.10;99.90;;;;;;5012608;28;20680;-64
2024/03/03 05:10:39;;;;;;;27.73;21.00;;;7.10;99.90;;;;;;5015777;28;20502;-63
2024/03/03 05:13:07;;;;;;;28.00;21.40;;;7.10;99.90;;;;;;5012606;28;20482;-64
2024/03/03 05:15:37;;;;;;;27.10;20.73;;;7.10;99.90;;;;;;5011137;28;20839;-64
2024/03/03 05:18:05;;;;;;;25.33;19.90;;;7.10;99.90;;;;;;5008198;28;20524;-64
2024/03/03 05:20:33;;;;;;;24.20;20.20;;;7.10;99.90;;;;;;5011122;28;21105;-64
2024/03/03 05:23:01;;;;;;;25.70;19.40;;;7.10;99.90;;;;;;5012765;28;20944;-64
2024/03/03 05:25:29;;;;;;;26.10;20.87;;;7.10;99.90;;;;;;5012805;28;20559;-65
2024/03/03 05:27:57;;;;;;;25.40;20.37;;;7.10;99.90;;;;;;5008947;28;20501;-63
2024/03/03 05:30:26;;;;;;;29.03;21.37;;;7.10;99.90;;;;;;5011933;28;20529;-65
2024/03/03 05:32:55;;;;;;;25.40;20.07;;;7.10;99.90;;;;;;5011478;28;20554;-63
2024/03/03 05:35:23;;;;;;;29.53;21.10;;;7.10;99.90;;;;;;5013016;28;20614;-64
2024/03/03 05:37:51;;;;;;;24.83;21.17;;;7.10;99.90;;;;;;5012232;28;20838;-66
2024/03/03 05:40:20;;;;;;;29.70;20.87;;;7.10;99.90;;;;;;5018535;28;20594;-65
2024/03/03 05:42:48;;;;;;;26.40;19.80;;;7.10;99.90;;;;;;5016658;28;20475;-66
2024/03/03 05:45:17;;;;;;;24.80;19.77;;;7.10;99.90;;;;;;5016957;28;20491;-65
2024/03/03 05:47:45;;;;;;;27.93;21.80;;;7.10;99.90;;;;;;5016224;28;20478;-65
2024/03/03 05:50:14;;;;;;;27.93;21.50;;;7.10;99.90;;;;;;5013084;28;20483;-64
2024/03/03 05:52:42;;;;;;;30.17;22.00;;;7.10;99.90;;;;;;5016275;28;20611;-66
2024/03/03 05:55:10;;;;;;;28.60;21.77;;;7.10;99.90;;;;;;5015940;28;20503;-65
2024/03/03 05:57:38;;;;;;;27.17;21.00;;;7.10;99.90;;;;;;5008413;28;20856;-67
2024/03/03 06:00:08;;;;;;;29.10;21.67;;;7.10;99.90;;;;;;5016028;28;20486;-65
2024/03/03 06:02:36;;;;;;;26.70;21.70;;;7.10;99.90;;;;;;5018439;28;20468;-66
2024/03/03 06:05:05;;;;;;;29.90;20.90;;;7.10;99.90;;;;;;5014233;28;20589;-66
2024/03/03 06:07:34;;;;;;;24.97;20.30;;;7.10;99.90;;;;;;5010219;28;20495;-66
2024/03/03 06:10:04;;;;;;;29.83;22.37;;;7.10;99.90;;;;;;5014256;28;20519;-67
2024/03/03 06:12:32;;;;;;;28.30;21.33;;;7.10;99.90;;;;;;5012943;28;20470;-66
2024/03/03 06:15:00;;;;;;;30.70;23.10;;;7.10;99.90;;;;;;5014505;28;20500;-66
2024/03/03 06:17:28;;;;;;;32.17;21.90;;;7.10;99.90;;;;;;5005233;28;21115;-66
2024/03/03 06:19:56;;;;;;;27.77;22.07;;;7.10;99.90;;;;;;5009364;28;20519;-66
2024/03/03 06:22:24;;;;;;;30.83;21.83;;;7.10;99.90;;;;;;5014317;28;20495;-66
2024/03/03 06:24:53;;;;;;;28.80;21.83;;;7.10;99.90;;;;;;5009825;28;21117;-66
2024/03/03 06:27:21;;;;;;;26.53;21.70;;;7.10;99.90;;;;;;5011500;28;21106;-66
2024/03/03 06:29:49;;;;;;;28.93;22.27;;;7.10;99.90;;;;;;5012285;28;22173;-66
2024/03/03 06:32:17;;;;;;;27.97;21.33;;;7.00;99.90;;;;;;5012704;28;20468;-67
2024/03/03 06:34:48;;;;;;;31.73;22.87;;;7.00;99.90;;;;;;5013475;28;20476;-66
2024/03/03 06:37:19;;;;;;;28.97;22.27;;;7.00;99.90;;;;;;5014696;28;20579;-66
2024/03/03 06:39:48;;;;;;;28.37;22.17;;;7.00;99.90;;;;;;5015434;28;20500;-65
2024/03/03 06:42:18;;;;;;;32.50;23.70;;;7.00;99.90;;;;;;5016627;28;20471;-65
2024/03/03 06:44:46;;;;;;;28.63;20.90;;;7.00;99.90;;;;;;5009297;28;20728;-64
2024/03/03 06:47:14;;;;;;;30.27;23.90;;;7.00;99.90;;;;;;5012677;28;20491;-63
2024/03/03 06:49:42;;;;;;;31.20;23.50;;;7.00;99.90;;;;;;5010903;28;21475;-66
2024/03/03 06:52:10;;;;;;;30.40;22.00;;;7.00;99.90;;;;;;5012973;28;20472;-64
2024/03/03 06:54:38;;;;;;;30.70;22.90;;;7.00;99.90;;;;;;5016250;28;20475;-62
2024/03/03 06:57:07;;;;;;;28.83;21.87;;;7.00;99.90;;;;;;5013859;28;20478;-63
2024/03/03 06:59:38;;;;;;;27.20;21.77;;;7.00;99.90;;;;;;5009454;28;20495;-63
2024/03/03 07:02:07;;;;;;;28.63;22.00;;;7.00;99.90;;;;;;5000750;28;20475;-63
2024/03/03 07:04:35;;;;;;;30.30;22.13;;;7.00;99.90;;;;;;5005457;28;20843;-63
2024/03/03 07:07:03;;;;;;;28.30;21.30;;;7.00;99.90;;;;;;5014107;28;20491;-63
2024/03/03 07:09:31;;;;;;;27.10;20.73;;;6.90;99.90;;;;;;5013375;28;20495;-63
2024/03/03 07:12:01;;;;;;;30.93;22.77;;;6.90;99.90;;;;;;5007027;28;20463;-63
2024/03/03 07:14:29;;;;;;;25.70;20.43;;;6.90;99.90;;;;;;5002474;28;20507;-64
2024/03/03 07:16:59;;;;;;;27.40;20.87;;;6.90;99.90;;;;;;5011177;28;20471;-63
2024/03/03 07:19:27;;;;;;;27.23;22.77;;;6.90;99.90;;;;;;5009713;28;20947;-63
2024/03/03 07:21:55;;;;;;;29.00;21.50;;;6.90;99.90;;;;;;5003959;28;21160;-63
2024/03/03 07:24:24;;;;;;;31.00;23.10;;;6.90;99.90;;;;;;5011104;28;20475;-64
2024/03/03 07:26:52;;;;;;;29.23;21.57;;;6.80;99.90;;;;;;5001013;28;20491;-65
2024/03/03 07:29:20;;;;;;;28.13;21.97;;;6.80;99.90;;;;;;5006284;28;20529;-64
2024/03/03 07:31:48;;;;;;;28.00;21.50;;;6.80;99.90;;;;;;5007994;28;20912;-64
2024/03/03 07:34:18;;;;;;;31.70;21.60;;;6.90;99.90;;;;;;5005929;28;20486;-64
2024/03/03 07:36:47;;;;;;;28.10;21.40;;;6.90;99.90;;;;;;5006629;28;20492;-64
2024/03/03 07:39:15;;;;;;;29.20;22.10;;;6.90;99.90;;;;;;5007587;28;20993;-65
2024/03/03 07:41:43;;;;;;;29.90;22.30;;;6.90;99.90;;;;;;5005760;28;20478;-64
2024/03/03 07:44:11;;;;;;;28.93;23.20;;;6.90;99.90;;;;;;5008464;28;20502;-64
2024/03/03 07:46:39;;;;;;;30.50;23.10;;;6.90;99.90;;;;;;5007126;28;20484;-64
2024/03/03 07:49:07;;;;;;;28.73;22.70;;;6.90;99.90;;;;;;5004879;28;20720;-64
2024/03/03 07:51:37;;;;;;;29.87;22.40;;;7.00;99.90;;;;;;5012505;28;20888;-64
2024/03/03 07:54:05;;;;;;;33.47;25.13;;;7.00;99.90;;;;;;5010854;28;20474;-64
2024/03/03 07:56:33;;;;;;;31.30;24.43;;;7.00;99.90;;;;;;5001395;28;21050;-64
2024/03/03 07:59:05;;;;;;;32.37;23.57;;;7.10;99.90;;;;;;5000006;28;20618;-64
2024/03/03 08:01:35;;;;;;;33.97;24.67;;;7.10;99.90;;;;;;5008377;28;20559;-64
2024/03/03 08:04:03;;;;;;;31.27;24.40;;;7.10;99.90;;;;;;5010521;28;20525;-65
2024/03/03 08:06:31;;;;;;;32.20;25.60;;;7.20;99.90;;;;;;5007476;28;21057;-64
2024/03/03 08:09:03;;;;;;;31.27;23.70;;;7.20;99.90;;;;;;5005417;28;20487;-64
2024/03/03 08:11:33;;;;;;;33.27;25.70;;;7.20;99.90;;;;;;5006816;28;20552;-64
2024/03/03 08:14:03;;;;;;;35.27;25.70;;;7.30;99.90;;;;;;5005910;28;20560;-63
2024/03/03 08:16:33;;;;;;;35.23;24.80;;;7.40;99.90;;;;;;5007569;28;20491;-63
2024/03/03 08:19:01;;;;;;;40.17;27.03;;;7.40;99.90;;;;;;5008047;28;20572;-63
2024/03/03 08:21:29;;;;;;;35.60;26.37;;;7.50;99.90;;;;;;5005302;28;20514;-63
2024/03/03 08:23:57;;;;;;;36.30;27.00;;;7.50;99.90;;;;;;5003305;28;20514;-64
2024/03/03 08:26:27;;;;;;;36.30;27.20;;;7.60;99.90;;;;;;4993619;28;20487;-64
2024/03/03 08:28:55;;;;;;;36.87;26.73;;;7.70;99.90;;;;;;5001093;28;20590;-63
2024/03/03 08:31:23;;;;;;;36.97;28.17;;;7.70;99.90;;;;;;5009995;28;20963;-64
2024/03/03 08:33:51;;;;;;;36.27;26.73;;;7.80;99.90;;;;;;5007230;28;20471;-63
2024/03/03 08:36:19;;;;;;;38.53;28.07;;;7.80;99.90;;;;;;5007630;28;20487;-63
2024/03/03 08:38:47;;;;;;;35.27;27.43;;;7.90;99.90;;;;;;5007047;28;20480;-63
2024/03/03 08:41:15;;;;;;;34.80;25.33;;;7.90;99.90;;;;;;5010847;28;21334;-64
2024/03/03 08:43:45;;;;;;;36.00;27.17;;;8.00;99.90;;;;;;5009337;28;20541;-63
2024/03/03 08:46:13;;;;;;;37.40;27.83;;;8.10;99.90;;;;;;5013449;28;21109;-64
2024/03/03 08:48:42;;;;;;;39.10;29.77;;;8.10;99.90;;;;;;5012525;28;20502;-63
2024/03/03 08:51:10;;;;;;;38.90;28.97;;;8.20;99.90;;;;;;5008529;28;20491;-64
2024/03/03 08:53:38;;;;;;;39.50;29.10;;;8.30;99.90;;;;;;5010615;28;20468;-63
2024/03/03 08:56:06;;;;;;;36.93;27.80;;;8.40;99.90;;;;;;5012541;28;20517;-63
2024/03/03 08:58:35;;;;;;;38.47;28.97;;;8.40;99.90;;;;;;5010307;28;20555;-63
2024/03/03 09:01:04;;;;;;;40.77;30.23;;;8.50;99.90;;;;;;5011582;28;20471;-64
2024/03/03 09:03:34;;;;;;;40.20;30.20;;;8.50;99.90;;;;;;5012748;28;20471;-64
2024/03/03 09:06:02;;;;;;;38.27;29.00;;;8.60;99.90;;;;;;5011796;28;20566;-64
2024/03/03 09:08:30;;;;;;;37.23;28.00;;;8.70;99.90;;;;;;5033044;28;20929;-64
2024/03/03 09:11:01;;;;;;;42.03;31.50;;;8.80;99.90;;;;;;5036773;28;20558;-64
2024/03/03 09:13:29;;;;;;;39.30;27.77;;;8.90;99.90;;;;;;5034104;28;20557;-63
2024/03/03 09:15:57;;;;;;;38.80;28.60;;;9.00;99.90;;;;;;5027789;28;20495;-64
2024/03/03 09:18:27;;;;;;;41.90;30.03;;;9.10;99.90;;;;;;5017602;28;20495;-64
2024/03/03 09:20:55;;;;;;;36.73;27.10;;;9.10;99.90;;;;;;5014200;28;20556;-64
2024/03/03 09:23:23;;;;;;;38.00;28.67;;;9.20;99.90;;;;;;5011542;28;21056;-64
2024/03/03 09:25:53;;;;;;;39.10;30.00;;;9.30;99.90;;;;;;5013328;28;20495;-64
2024/03/03 09:28:21;;;;;;;35.77;29.10;;;9.40;99.90;;;;;;5011821;28;21003;-64
2024/03/03 09:30:49;;;;;;;38.60;29.00;;;9.50;99.90;;;;;;5014374;28;20478;-64
2024/03/03 09:33:17;;;;;;;35.67;26.60;;;9.60;99.90;;;;;;5013710;28;20482;-64
2024/03/03 09:35:46;;;;;;;35.57;27.20;;;9.70;99.90;;;;;;5010468;28;20490;-63
2024/03/03 09:38:14;;;;;;;38.77;29.53;;;9.80;99.90;;;;;;5010327;28;21119;-64
2024/03/03 09:40:45;;;;;;;38.23;29.47;;;9.80;99.90;;;;;;5016441;28;20470;-64
2024/03/03 09:43:16;;;;;;;34.37;26.47;;;9.90;99.90;;;;;;5015308;28;20546;-64
2024/03/03 09:45:45;;;;;;;35.27;27.40;;;10.00;99.90;;;;;;5015933;28;20487;-65
2024/03/03 09:48:13;;;;;;;34.30;27.50;;;10.10;99.90;;;;;;5009715;28;21012;-64
2024/03/03 09:50:42;;;;;;;34.80;27.77;;;10.20;99.90;;;;;;5014900;28;20468;-65
2024/03/03 09:53:11;;;;;;;34.37;26.27;;;10.30;99.90;;;;;;5011238;28;21013;-65
2024/03/03 09:55:41;;;;;;;33.77;26.60;;;10.40;99.90;;;;;;5011366;28;20558;-66
2024/03/03 09:58:10;;;;;;;33.17;25.90;;;10.50;99.90;;;;;;5009976;28;20999;-66
2024/03/03 10:00:38;;;;;;;31.50;25.70;;;10.60;99.90;;;;;;5013787;28;20500;-67
2024/03/03 10:03:07;;;;;;;32.50;25.53;;;10.70;99.90;;;;;;5008085;28;21062;-66
2024/03/03 10:05:37;;;;;;;34.40;26.17;;;10.70;99.90;;;;;;5010635;28;20570;-66
2024/03/03 10:08:06;;;;;;;31.30;27.13;;;10.80;99.90;;;;;;5014482;28;21889;-66
2024/03/03 10:10:38;;;;;;;32.50;26.53;;;10.90;99.90;;;;;;5006857;28;20839;-66
2024/03/03 10:13:06;;;;;;;31.53;24.83;;;11.00;99.90;;;;;;5012613;28;20569;-65
2024/03/03 10:15:35;;;;;;;29.93;24.80;;;11.10;99.90;;;;;;5010019;28;20549;-66
2024/03/03 10:18:04;;;;;;;30.43;24.10;;;11.20;99.90;;;;;;5015087;28;21185;-67
2024/03/03 10:20:32;;;;;;;30.80;24.73;;;11.30;99.90;;;;;;5014820;28;20476;-66
2024/03/03 10:23:00;;;;;;;28.00;23.03;;;11.40;99.90;;;;;;5015408;28;20477;-67
2024/03/03 10:25:30;;;;;;;29.07;24.40;;;11.60;99.90;;;;;;5015658;28;21077;-66
2024/03/03 10:28:12;;;;;;;28.07;23.57;;;11.70;99.90;;;;;;5015657;28;20552;-66
2024/03/03 10:30:41;;;;;;;26.33;22.80;;;11.80;99.90;;;;;;5012660;28;20974;-66
2024/03/03 10:33:10;;;;;;;29.17;24.10;;;11.80;99.90;;;;;;5011243;28;20483;-67
2024/03/03 10:35:38;;;;;;;25.33;22.53;;;11.90;99.90;;;;;;5016393;28;20502;-67
2024/03/03 10:38:10;;;;;;;26.40;22.33;;;12.00;99.90;;;;;;5008458;28;20548;-68
2024/03/03 10:40:38;;;;;;;26.83;22.13;;;12.10;99.90;;;;;;5013886;28;20472;-68
2024/03/03 10:43:09;;;;;;;23.80;21.20;;;12.20;99.90;;;;;;5015236;28;21137;-68
2024/03/03 10:45:39;;;;;;;28.40;20.40;;;12.30;99.90;;;;;;5015054;28;20505;-67
2024/03/03 10:48:07;;;;;;;24.63;20.60;;;12.40;99.90;;;;;;5010376;28;20511;-68
2024/03/03 10:50:36;;;;;;;24.50;20.80;;;12.50;99.90;;;;;;5010917;28;20559;-68
2024/03/03 10:53:12;;;;;;;27.50;22.23;;;12.60;99.90;;;;;;5014192;28;20971;-67
2024/03/03 10:55:42;;;;;;;23.13;20.60;;;12.70;99.90;;;;;;5013838;28;21010;-68
2024/03/03 10:58:12;;;;;;;23.00;20.23;;;12.80;99.90;;;;;;5013061;28;21020;-68
2024/03/03 11:00:41;;;;;;;22.90;18.77;;;12.90;99.90;;;;;;5009514;28;20577;-67
2024/03/03 11:03:12;;;;;;;23.90;20.10;;;13.00;99.90;;;;;;5014636;28;20471;-67
2024/03/03 11:05:42;;;;;;;19.83;17.73;;;13.10;99.90;;;;;;5013163;28;20519;-67
2024/03/03 11:08:15;;;;;;;19.97;17.87;;;13.20;99.90;;;;;;5012351;28;20587;-66
2024/03/03 11:10:43;;;;;;;21.33;17.50;;;13.30;99.90;;;;;;5011928;28;20823;-64
2024/03/03 11:13:14;;;;;;;22.47;18.50;;;13.40;99.90;;;;;;5009202;28;20466;-65
2024/03/03 11:15:46;;;;;;;22.43;19.67;;;13.60;99.90;;;;;;5008504;28;20491;-65
2024/03/03 11:18:18;;;;;;;21.87;18.07;;;13.70;99.90;;;;;;5007135;28;20464;-66
2024/03/03 11:20:53;;;;;;;20.97;18.47;;;13.80;99.90;;;;;;5014167;28;20540;-65
2024/03/03 11:23:25;;;;;;;22.83;19.10;;;13.90;99.90;;;;;;5015145;28;20562;-66
2024/03/03 11:26:04;;;;;;;22.90;19.40;;;14.00;99.90;;;;;;5007908;28;20909;-66
2024/03/03 11:28:35;;;;;;;21.57;19.27;;;14.10;99.90;;;;;;5013181;28;20582;-67
2024/03/03 11:31:04;;;;;;;21.77;19.40;;;14.20;99.90;;;;;;5012946;28;21055;-67
2024/03/03 11:33:33;;;;;;;21.83;19.43;;;14.30;99.90;;;;;;5010598;28;20467;-66
2024/03/03 11:36:01;;;;;;;22.07;18.73;;;14.40;99.90;;;;;;5013527;28;20487;-65
2024/03/03 11:38:40;;;;;;;21.70;19.40;;;14.50;99.90;;;;;;5015334;28;20525;-66
2024/03/03 11:41:10;;;;;;;20.13;18.13;;;14.60;99.90;;;;;;5016427;28;20524;-66
2024/03/03 11:43:41;;;;;;;21.00;18.80;;;14.70;99.90;;;;;;5016922;28;21307;-65
2024/03/03 11:46:09;;;;;;;21.57;19.27;;;14.70;99.90;;;;;;5010157;28;20521;-65
2024/03/03 11:48:42;;;;;;;21.17;17.80;;;14.80;99.90;;;;;;5008748;28;20500;-65
2024/03/03 11:51:31;;;;;;;21.63;18.07;;;14.80;99.90;;;;;;5011065;28;21175;-65
2024/03/03 11:54:00;;;;;;;19.70;17.70;;;14.90;99.90;;;;;;5004797;28;21090;-65
2024/03/03 11:56:30;;;;;;;19.83;17.83;;;15.00;99.90;;;;;;5010542;28;20583;-66
2024/03/03 11:59:00;;;;;;;20.40;18.30;;;15.10;99.90;;;;;;5013618;28;21005;-66
2024/03/03 12:01:32;;;;;;;19.67;17.60;;;15.10;99.90;;;;;;5004182;28;20479;-68
2024/03/03 12:04:00;;;;;;;20.90;17.70;;;15.20;99.90;;;;;;5001204;28;21050;-63
2024/03/03 12:06:28;;;;;;;19.13;17.23;;;15.40;99.90;;;;;;5009712;28;22453;-65
2024/03/03 12:09:03;;;;;;;18.40;16.60;;;15.60;99.90;;;;;;5011808;28;20561;-62
2024/03/03 12:11:32;;;;;;;18.73;16.73;;;15.80;99.90;;;;;;5004181;28;20459;-65
2024/03/03 12:14:01;;;;;;;19.17;17.20;;;16.00;99.90;;;;;;5004045;28;20541;-63
2024/03/03 12:16:31;;;;;;;19.77;17.60;;;16.30;99.90;;;;;;5005495;28;20490;-63
2024/03/03 12:18:59;;;;;;;20.43;18.33;;;16.60;99.90;;;;;;5007419;28;20554;-63
2024/03/03 12:21:28;;;;;;;19.03;17.10;;;16.90;99.90;;;;;;5012317;28;21080;-63
2024/03/03 12:23:56;;;;;;;20.27;18.27;;;17.30;99.90;;;;;;5009301;28;20474;-63
2024/03/03 12:26:24;;;;;;;19.80;17.80;;;17.70;99.90;;;;;;5004880;28;20574;-65
2024/03/03 12:28:52;;;;;;;18.70;16.80;;;18.30;99.90;;;;;;5007219;28;20534;-63
2024/03/03 12:31:23;;;;;;;19.83;17.93;;;19.20;99.90;;;;;;5010008;28;20566;-63
2024/03/03 12:33:52;;;;;;;20.47;18.47;;;20.70;99.90;;;;;;5005750;28;20492;-63
2024/03/03 12:36:21;;;;;;;19.50;16.97;;;22.10;99.30;;;;;;5003114;28;20487;-64
2024/03/03 12:38:49;;;;;;;21.20;19.10;;;23.30;93.50;;;;;;5011844;28;20842;-64
2024/03/03 12:41:17;;;;;;;19.93;18.13;;;24.30;93.70;;;;;;5011777;28;20495;-65
2024/03/03 12:43:45;;;;;;;19.90;18.10;;;26.10;66.30;;;;;;5014544;28;20483;-64